Time;durP1;ratioP1;P1;durP2;ratioP2;P2;SDS_P1;SDS_P2;PMS_P1;PMS_P2;Temp;Humidity;BMP_temperature;BMP_pressure;BME280_temperature;BME280_humidity;BME280_pressure;Samples;Min_cycle;Max_cycle;Signal;HPM_P1;HPM_P2
2021/12/03 00:00:24;;;;;;;28.70;12.20;;;;;;;1.49;72.45;98934.34;88516;1269;99260;-68
2021/12/03 00:02:47;;;;;;;24.10;10.00;;;;;;;1.44;72.52;98943.05;88548;1272;88816;-69
2021/12/03 00:04:57;;;;;;;25.10;9.90;;;;;;;1.38;72.49;98950.60;88517;1269;93641;-69
2021/12/03 00:07:06;;;;;;;20.60;7.40;;;;;;;1.36;72.48;98956.65;88582;1272;78932;-70
2021/12/03 00:09:15;;;;;;;18.60;8.40;;;;;;;1.33;72.59;98957.83;88557;1275;82442;-61
2021/12/03 00:11:25;;;;;;;17.20;8.00;;;;;;;1.33;72.51;98957.02;88580;1269;99852;-61
2021/12/03 00:13:36;;;;;;;20.00;9.30;;;;;;;1.32;72.67;98959.37;88598;1260;87299;-59
2021/12/03 00:15:45;;;;;;;17.80;8.00;;;;;;;1.35;72.86;98956.55;88539;1269;93771;-60
2021/12/03 00:17:55;;;;;;;32.20;12.80;;;;;;;1.39;72.83;98957.62;88547;1272;77002;-68
2021/12/03 00:20:07;;;;;;;23.10;10.50;;;;;;;1.41;72.73;98958.21;88493;1268;80244;-61
2021/12/03 00:22:18;;;;;;;25.50;8.60;;;;;;;1.42;72.88;98959.39;88543;1269;99702;-62
2021/12/03 00:24:28;;;;;;;18.40;8.40;;;;;;;1.42;72.84;98957.25;88574;1269;88121;-62
2021/12/03 00:26:42;;;;;;;14.60;5.80;;;;;;;1.41;72.78;98956.32;88571;1269;94067;-65
2021/12/03 00:28:52;;;;;;;11.70;5.70;;;;;;;1.38;72.70;98961.44;88576;1269;76759;-62
2021/12/03 00:31:02;;;;;;;16.00;6.40;;;;;;;1.36;72.81;98962.04;88553;1271;81481;-62
2021/12/03 00:33:12;;;;;;;13.60;5.50;;;;;;;1.32;72.85;98972.70;88547;1275;99008;-62
2021/12/03 00:35:23;;;;;;;16.60;7.70;;;;;;;1.28;72.76;98980.76;88519;1268;87861;-62
2021/12/03 00:37:32;;;;;;;20.30;8.10;;;;;;;1.22;72.92;98975.20;88569;1269;94142;-70
2021/12/03 00:39:41;;;;;;;11.10;5.80;;;;;;;1.19;72.79;98972.52;88538;1269;80132;-70
2021/12/03 00:41:56;;;;;;;14.20;7.10;;;;;;;1.19;73.10;98976.20;88562;1268;82195;-72
2021/12/03 00:44:10;;;;;;;14.20;5.50;;;;;;;1.21;73.17;98976.95;88559;1274;99916;-63
2021/12/03 00:46:22;;;;;;;13.50;5.90;;;;;;;1.24;73.04;98992.39;88584;1275;87268;-72
2021/12/03 00:48:32;;;;;;;15.90;6.90;;;;;;;1.25;73.12;98996.65;88545;1269;95600;-71
2021/12/03 00:50:41;;;;;;;12.00;5.70;;;;;;;1.30;73.18;98999.31;88545;1268;76901;-70
2021/12/03 00:52:54;;;;;;;13.70;5.50;;;;;;;1.29;73.22;99001.77;88537;1273;83017;-62
2021/12/03 00:55:04;;;;;;;14.20;6.20;;;;;;;1.28;73.11;99014.00;88559;1275;99369;-63
2021/12/03 00:57:16;;;;;;;13.10;5.70;;;;;;;1.18;72.96;99017.98;88548;1266;87452;-69
2021/12/03 00:59:25;;;;;;;11.30;5.30;;;;;;;1.15;73.10;99019.07;88534;1269;93959;-70
2021/12/03 01:01:35;;;;;;;9.70;5.60;;;;;;;1.13;73.08;99018.60;88529;1267;78263;-62
2021/12/03 01:03:44;;;;;;;10.50;5.50;;;;;;;1.13;73.40;99022.98;88500;1268;80106;-63
2021/12/03 01:05:54;;;;;;;12.20;5.50;;;;;;;1.11;73.21;99020.34;88589;1267;99022;-68
2021/12/03 01:08:03;;;;;;;11.50;5.50;;;;;;;1.13;73.37;99022.30;88541;1272;88321;-72
2021/12/03 01:10:13;;;;;;;12.30;5.60;;;;;;;1.15;73.34;99016.42;88548;1274;94836;-70
2021/12/03 01:12:22;;;;;;;11.10;5.00;;;;;;;1.15;73.41;99016.40;88559;1274;77740;-71
2021/12/03 01:14:31;;;;;;;10.40;4.70;;;;;;;1.11;73.30;99014.70;88551;1268;81639;-70
2021/12/03 01:16:40;;;;;;;10.30;4.90;;;;;;;1.09;73.43;99011.88;88598;1268;96985;-70
2021/12/03 01:18:49;;;;;;;10.70;4.80;;;;;;;1.09;73.40;99015.93;88541;1269;87836;-70
2021/12/03 01:20:58;;;;;;;9.60;4.30;;;;;;;1.11;73.46;99019.09;88589;1269;94547;-69
2021/12/03 01:23:10;;;;;;;8.60;3.90;;;;;;;1.14;73.40;99020.92;88545;1275;78707;-70
2021/12/03 01:25:22;;;;;;;10.10;4.50;;;;;;;1.17;73.53;99023.96;88564;1272;81020;-72
2021/12/03 01:27:34;;;;;;;10.60;4.60;;;;;;;1.22;73.50;99027.56;88583;1275;99952;-71
2021/12/03 01:29:42;;;;;;;7.20;4.30;;;;;;;1.23;73.56;99030.95;88547;1268;88742;-71
2021/12/03 01:31:53;;;;;;;8.70;4.30;;;;;;;1.27;73.68;99032.83;88563;1275;93115;-73
2021/12/03 01:34:02;;;;;;;12.20;5.00;;;;;;;1.32;73.55;99033.93;88595;1274;77450;-72
2021/12/03 01:36:12;;;;;;;10.90;5.30;;;;;;;1.33;73.35;99036.31;88593;1271;82570;-71
2021/12/03 01:38:21;;;;;;;9.60;4.20;;;;;;;1.30;73.51;99043.37;88505;1268;99041;-70
2021/12/03 01:43:19;;;;;;;8.70;4.40;;;;;;;1.29;73.40;99051.11;88500;1272;94801;-61
2021/12/03 01:45:33;;;;;;;8.50;4.40;;;;;;;1.27;73.45;99051.58;88569;1269;77653;-61
2021/12/03 01:47:47;;;;;;;9.90;4.70;;;;;;;1.27;73.60;99056.58;88580;1271;80763;-61
2021/12/03 01:49:58;;;;;;;8.80;4.70;;;;;;;1.26;73.46;99060.09;88579;1268;99956;-61
2021/12/03 01:52:09;;;;;;;10.00;4.70;;;;;;;1.25;73.32;99066.40;88611;1273;87602;-61
2021/12/03 01:54:18;;;;;;;8.20;4.30;;;;;;;1.25;73.40;99068.14;88593;1268;94654;-61
2021/12/03 01:56:30;;;;;;;11.30;5.10;;;;;;;1.28;73.55;99069.97;88572;1268;81515;-69
2021/12/03 01:58:40;;;;;;;13.10;6.30;;;;;;;1.32;73.58;99070.56;88586;1269;80818;-70
2021/12/03 02:00:53;;;;;;;9.20;4.70;;;;;;;1.37;73.69;99065.13;88555;1266;97340;-71
2021/12/03 02:03:08;;;;;;;10.80;5.50;;;;;;;1.37;73.57;99066.13;88601;1272;88930;-69
2021/12/03 02:05:17;;;;;;;12.00;5.20;;;;;;;1.42;73.56;99065.05;88589;1269;95514;-71
2021/12/03 02:07:27;;;;;;;10.30;5.20;;;;;;;1.46;73.63;99071.02;88585;1262;77221;-61
2021/12/03 02:09:38;;;;;;;13.10;5.10;;;;;;;1.49;73.47;99067.84;88580;1269;82693;-61
2021/12/03 02:11:47;;;;;;;10.00;5.00;;;;;;;1.49;73.60;99078.31;88598;1272;98972;-71
2021/12/03 02:13:56;;;;;;;10.80;5.40;;;;;;;1.47;73.50;99082.27;88597;1275;88098;-71
2021/12/03 02:16:10;;;;;;;11.70;5.80;;;;;;;1.42;73.45;99080.90;88605;1275;94478;-71
2021/12/03 02:18:20;;;;;;;10.20;5.50;;;;;;;1.32;73.29;99082.45;88603;1268;78326;-71
2021/12/03 02:20:30;;;;;;;10.30;5.10;;;;;;;1.20;73.12;99079.83;88586;1268;81252;-70
2021/12/03 02:22:39;;;;;;;11.30;5.60;;;;;;;1.06;73.32;99083.48;88599;1269;99470;-69
2021/12/03 02:24:49;;;;;;;10.10;5.70;;;;;;;0.95;73.37;99083.45;88595;1275;88138;-69
2021/12/03 02:26:58;;;;;;;8.70;4.90;;;;;;;0.84;73.36;99089.89;88556;1265;95100;-69
2021/12/03 02:29:08;;;;;;;12.00;5.30;;;;;;;0.76;73.64;99099.66;88571;1271;80025;-70
2021/12/03 02:31:24;;;;;;;9.00;4.80;;;;;;;0.69;73.53;99099.96;88587;1268;81961;-70
2021/12/03 02:33:36;;;;;;;9.00;4.40;;;;;;;0.67;73.80;99105.53;88563;1268;100396;-70
2021/12/03 02:35:46;;;;;;;9.90;4.30;;;;;;;0.64;73.87;99114.28;88580;1271;87519;-68
2021/12/03 02:37:57;;;;;;;9.50;4.70;;;;;;;0.64;74.15;99116.11;88591;1272;95657;-61
2021/12/03 02:40:08;;;;;;;11.00;4.90;;;;;;;0.68;74.18;99114.30;88560;1273;78059;-61
2021/12/03 02:42:20;;;;;;;9.60;5.10;;;;;;;0.69;74.48;99113.84;88576;1272;81646;-60
2021/12/03 02:44:30;;;;;;;9.20;4.90;;;;;;;0.65;74.16;99120.40;88605;1269;98286;-62
2021/12/03 02:46:39;;;;;;;10.60;4.80;;;;;;;0.64;74.39;99125.67;88595;1268;88837;-71
2021/12/03 02:48:49;;;;;;;8.80;4.60;;;;;;;0.64;74.47;99126.80;88545;1266;94635;-71
2021/12/03 02:51:00;;;;;;;11.10;4.70;;;;;;;0.63;74.63;99129.73;88603;1266;77741;-70
2021/12/03 02:53:12;;;;;;;9.80;4.80;;;;;;;0.62;74.44;99135.42;88582;1272;80411;-70
2021/12/03 02:55:22;;;;;;;9.60;5.20;;;;;;;0.58;74.53;99138.16;88578;1272;100189;-70
2021/12/03 02:57:35;;;;;;;9.60;4.60;;;;;;;0.52;74.46;99142.77;88610;1268;87864;-62
2021/12/03 02:59:44;;;;;;;9.30;4.80;;;;;;;0.49;74.75;99145.21;88550;1266;95221;-61
2021/12/03 03:01:54;;;;;;;9.20;4.70;;;;;;;0.46;74.79;99150.74;88556;1268;81003;-71
2021/12/03 03:04:03;;;;;;;9.60;4.90;;;;;;;0.46;74.69;99150.17;88577;1275;81752;-70
2021/12/03 03:06:15;;;;;;;8.40;4.50;;;;;;;0.48;74.93;99154.80;88549;1268;98934;-70
2021/12/03 03:08:26;;;;;;;8.00;4.80;;;;;;;0.48;74.96;99157.95;88593;1272;88731;-70
2021/12/03 03:10:41;;;;;;;8.60;4.80;;;;;;;0.49;75.12;99159.83;88496;1272;95794;-71
2021/12/03 03:12:52;;;;;;;9.30;4.50;;;;;;;0.50;75.10;99163.45;88527;1269;78018;-71
2021/12/03 03:15:03;;;;;;;10.10;4.80;;;;;;;0.48;75.32;99160.98;88639;1265;80820;-70
2021/12/03 03:17:13;;;;;;;11.10;5.30;;;;;;;0.42;75.21;99169.04;88671;1270;99357;-71
2021/12/03 03:19:24;;;;;;;7.80;4.50;;;;;;;0.36;75.53;99173.85;88664;1266;88209;-71
2021/12/03 03:21:34;;;;;;;11.80;4.70;;;;;;;0.36;75.44;99183.27;88648;1266;95743;-59
2021/12/03 03:23:44;;;;;;;6.90;4.00;;;;;;;0.37;75.37;99180.52;88664;1266;77856;-61
2021/12/03 03:25:55;;;;;;;8.00;4.60;;;;;;;0.38;75.51;99183.73;88701;1265;80275;-70
2021/12/03 03:28:05;;;;;;;10.10;4.70;;;;;;;0.39;75.52;99182.73;88645;1266;98787;-70
2021/12/03 03:30:18;;;;;;;8.90;4.40;;;;;;;0.39;75.68;99182.89;88663;1266;87234;-70
2021/12/03 03:32:28;;;;;;;8.90;4.80;;;;;;;0.39;75.63;99185.23;88656;1272;94515;-62
2021/12/03 03:34:37;;;;;;;8.10;4.50;;;;;;;0.42;75.72;99188.30;88645;1265;79046;-62
2021/12/03 03:36:46;;;;;;;9.10;4.90;;;;;;;0.46;75.90;99196.34;88657;1266;80258;-72
2021/12/03 03:38:58;;;;;;;7.90;4.20;;;;;;;0.50;75.97;99198.98;88645;1272;99662;-69
2021/12/03 03:41:07;;;;;;;8.70;4.50;;;;;;;0.50;76.00;99200.47;88670;1266;87354;-60
2021/12/03 03:43:17;;;;;;;8.40;4.60;;;;;;;0.44;75.85;99205.45;88638;1265;95158;-61
2021/12/03 03:45:28;;;;;;;7.20;4.30;;;;;;;0.40;75.90;99211.03;88621;1266;76365;-61
2021/12/03 03:47:38;;;;;;;8.10;4.70;;;;;;;0.34;75.91;99215.85;88695;1266;79932;-62
2021/12/03 03:49:47;;;;;;;9.00;5.00;;;;;;;0.33;75.97;99222.19;88653;1266;100365;-62
2021/12/03 03:51:59;;;;;;;8.10;4.60;;;;;;;0.30;76.13;99224.45;88667;1266;86895;-60
2021/12/03 03:54:09;;;;;;;7.40;4.60;;;;;;;0.27;76.23;99226.15;88676;1273;94622;-62
2021/12/03 03:56:18;;;;;;;8.20;4.80;;;;;;;0.23;76.21;99225.34;88680;1266;80086;-61
2021/12/03 03:58:27;;;;;;;9.40;4.70;;;;;;;0.19;76.25;99230.86;88671;1266;82483;-61
2021/12/03 04:00:40;;;;;;;9.00;5.10;;;;;;;0.15;76.27;99233.95;88647;1266;99200;-61
2021/12/03 04:02:49;;;;;;;9.70;4.90;;;;;;;0.12;76.37;99235.08;88657;1266;87655;-63
2021/12/03 04:04:58;;;;;;;8.40;4.70;;;;;;;0.13;76.53;99231.66;88672;1273;95238;-61
2021/12/03 04:07:08;;;;;;;8.80;4.90;;;;;;;0.17;76.52;99230.19;88619;1265;80533;-62
2021/12/03 04:09:17;;;;;;;9.60;4.80;;;;;;;0.19;76.70;99232.66;88679;1266;82926;-60
2021/12/03 04:11:29;;;;;;;9.60;4.70;;;;;;;0.22;76.80;99231.29;88662;1272;100385;-69
2021/12/03 04:13:39;;;;;;;10.40;4.70;;;;;;;0.28;76.85;99229.98;88654;1265;88916;-69
2021/12/03 04:15:49;;;;;;;9.70;5.30;;;;;;;0.33;76.98;99229.23;88646;1266;94251;-70
2021/12/03 04:17:58;;;;;;;7.90;5.20;;;;;;;0.36;77.00;99229.98;88656;1266;78262;-61
2021/12/03 04:20:10;;;;;;;9.80;5.20;;;;;;;0.35;76.91;99229.05;88654;1266;83097;-61
2021/12/03 04:22:23;;;;;;;10.50;5.40;;;;;;;0.31;76.76;99233.66;88694;1266;98959;-60
2021/12/03 04:24:32;;;;;;;8.00;5.00;;;;;;;0.28;76.69;99231.34;88670;1266;88688;-61
2021/12/03 04:26:41;;;;;;;9.80;5.10;;;;;;;0.22;76.74;99236.77;88663;1270;94340;-68
2021/12/03 04:28:50;;;;;;;7.60;4.80;;;;;;;0.17;76.71;99241.30;88656;1272;77489;-70
2021/12/03 04:31:00;;;;;;;9.50;5.10;;;;;;;0.11;76.72;99244.40;88658;1273;80469;-62
2021/12/03 04:33:10;;;;;;;11.00;5.60;;;;;;;0.05;76.88;99248.22;88656;1269;98754;-61
2021/12/03 04:35:19;;;;;;;9.60;5.00;;;;;;;0.04;77.12;99250.80;88651;1275;87307;-62
2021/12/03 04:37:28;;;;;;;8.50;5.50;;;;;;;0.06;76.93;99258.32;88676;1272;94714;-61
2021/12/03 04:39:37;;;;;;;7.80;5.50;;;;;;;0.11;77.34;99259.99;88644;1275;80120;-61
2021/12/03 04:41:47;;;;;;;8.50;5.10;;;;;;;0.17;77.21;99259.16;88951;1266;80701;-70
2021/12/03 04:43:56;;;;;;;10.80;5.40;;;;;;;0.25;77.33;99261.92;88656;1266;99560;-69
2021/12/03 04:46:07;;;;;;;8.30;5.10;;;;;;;0.36;77.47;99269.52;88637;1266;86232;-68
2021/12/03 04:48:18;;;;;;;8.50;5.70;;;;;;;0.40;77.43;99271.72;88549;1268;94317;-69
2021/12/03 04:50:30;;;;;;;8.60;4.90;;;;;;;0.46;77.56;99270.42;88622;1266;77904;-69
2021/12/03 04:52:39;;;;;;;10.00;5.20;;;;;;;0.54;77.46;99274.04;88651;1269;81651;-61
2021/12/03 04:54:48;;;;;;;9.80;5.60;;;;;;;0.56;77.52;99274.52;88068;1271;779170;-61
2021/12/03 04:56:57;;;;;;;11.40;5.70;;;;;;;0.57;77.49;99272.86;88649;1273;88634;-69
2021/12/03 04:59:07;;;;;;;15.80;6.30;;;;;;;0.55;77.57;99276.54;88674;1265;95471;-68
2021/12/03 05:01:16;;;;;;;16.20;7.90;;;;;;;0.54;77.49;99276.66;88661;1266;78056;-70
2021/12/03 05:03:29;;;;;;;17.40;8.20;;;;;;;0.53;77.42;99279.28;88676;1266;83177;-69
2021/12/03 05:05:48;;;;;;;21.30;8.40;;;;;;;0.52;77.24;99282.79;88625;1266;99176;-70
2021/12/03 05:08:01;;;;;;;15.60;7.60;;;;;;;0.51;77.39;99290.96;88670;1272;87669;-70
2021/12/03 05:10:12;;;;;;;12.70;7.30;;;;;;;0.49;77.35;99293.52;88629;1273;95202;-70
2021/12/03 05:12:21;;;;;;;12.30;6.60;;;;;;;0.48;77.53;99295.38;88663;1266;80743;-70
2021/12/03 05:14:31;;;;;;;14.40;6.80;;;;;;;0.48;77.60;99298.40;88670;1273;80423;-70
2021/12/03 05:16:40;;;;;;;11.20;6.00;;;;;;;0.49;77.61;99300.89;88679;1273;97871;-70
2021/12/03 05:18:52;;;;;;;12.50;6.70;;;;;;;0.55;77.63;99302.67;88693;1269;88759;-69
2021/12/03 05:21:06;;;;;;;14.20;7.60;;;;;;;0.61;77.77;99301.29;88662;1272;95385;-62
2021/12/03 05:23:16;;;;;;;11.20;7.20;;;;;;;0.64;77.49;99300.36;88652;1266;77203;-62
2021/12/03 05:25:25;;;;;;;13.00;6.60;;;;;;;0.66;77.62;99301.40;88661;1266;82063;-61
2021/12/03 05:27:34;;;;;;;12.60;6.70;;;;;;;0.67;77.66;99310.29;88653;1273;99486;-61
2021/12/03 05:29:45;;;;;;;12.20;6.80;;;;;;;0.67;77.29;99316.55;88652;1265;89768;-61
2021/12/03 05:31:54;;;;;;;9.60;5.90;;;;;;;0.60;77.52;99320.89;88676;1266;94562;-69
2021/12/03 05:34:04;;;;;;;9.10;6.10;;;;;;;0.54;77.54;99322.36;88635;1266;78116;-67
2021/12/03 05:36:13;;;;;;;8.40;5.70;;;;;;;0.49;77.69;99325.34;88685;1266;80594;-62
2021/12/03 05:38:22;;;;;;;10.50;6.30;;;;;;;0.46;77.54;99328.33;88655;1266;99616;-61
2021/12/03 05:40:31;;;;;;;11.30;6.10;;;;;;;0.41;77.51;99334.02;88661;1275;88611;-61
2021/12/03 05:42:40;;;;;;;8.30;5.50;;;;;;;0.35;77.70;99338.08;88643;1272;94751;-61
2021/12/03 05:44:49;;;;;;;9.90;5.70;;;;;;;0.30;77.67;99338.24;88668;1272;81754;-61
2021/12/03 05:46:58;;;;;;;9.10;5.80;;;;;;;0.32;77.58;99342.98;88651;1267;83046;-68
2021/12/03 05:49:07;;;;;;;8.90;5.30;;;;;;;0.35;77.57;99345.94;88637;1271;98663;-71
2021/12/03 05:51:16;;;;;;;8.10;5.00;;;;;;;0.33;77.34;99345.93;88669;1272;87795;-59
2021/12/03 05:53:25;;;;;;;8.10;5.50;;;;;;;0.34;77.44;99350.09;88647;1266;95791;-60
2021/12/03 05:55:35;;;;;;;9.20;5.30;;;;;;;0.38;77.38;99353.92;88643;1266;77583;-60
2021/12/03 05:57:44;;;;;;;7.30;5.00;;;;;;;0.41;77.33;99353.30;88648;1272;80894;-61
2021/12/03 05:59:54;;;;;;;7.10;5.40;;;;;;;0.43;77.25;99351.29;88636;1271;98198;-60
2021/12/03 06:02:03;;;;;;;7.40;5.60;;;;;;;0.42;77.06;99348.79;88662;1272;89378;-60
2021/12/03 06:04:13;;;;;;;8.90;5.40;;;;;;;0.41;76.86;99346.40;88647;1266;95467;-60
2021/12/03 06:06:23;;;;;;;7.10;4.70;;;;;;;0.37;77.03;99345.54;88666;1266;76042;-68
2021/12/03 06:08:32;;;;;;;7.80;5.10;;;;;;;0.30;76.93;99344.27;88667;1263;80973;-66
2021/12/03 06:10:42;;;;;;;9.00;4.90;;;;;;;0.21;76.76;99351.17;88641;1269;99237;-67
2021/12/03 06:12:56;;;;;;;8.20;4.80;;;;;;;0.11;76.67;99349.00;88636;1266;89191;-59
2021/12/03 06:15:05;;;;;;;8.00;4.90;;;;;;;-0.00;76.56;99352.23;88661;1266;95150;-60
2021/12/03 06:17:15;;;;;;;5.80;4.50;;;;;;;-0.13;76.70;99350.29;88701;1266;79675;-59
2021/12/03 06:19:25;;;;;;;5.50;4.30;;;;;;;-0.22;76.59;99350.44;88637;1273;82736;-60
2021/12/03 06:21:35;;;;;;;6.90;4.60;;;;;;;-0.28;76.55;99353.57;88666;1272;99331;-67
2021/12/03 06:23:44;;;;;;;7.70;4.70;;;;;;;-0.36;76.46;99351.42;88666;1273;87161;-67
2021/12/03 06:25:53;;;;;;;6.70;4.30;;;;;;;-0.40;76.83;99353.48;88615;1272;95909;-62
2021/12/03 06:28:01;;;;;;;5.70;4.40;;;;;;;-0.44;76.52;99366.27;88625;1273;79244;-61
2021/12/03 06:30:16;;;;;;;5.70;4.10;;;;;;;-0.45;76.63;99368.12;88665;1275;80646;-61
2021/12/03 06:32:25;;;;;;;5.40;3.80;;;;;;;-0.48;76.83;99365.20;88649;1266;99463;-60
2021/12/03 06:34:34;;;;;;;5.30;3.70;;;;;;;-0.52;76.82;99368.95;88652;1272;87631;-60
2021/12/03 06:36:43;;;;;;;6.30;4.20;;;;;;;-0.56;76.72;99368.08;88656;1270;95325;-60
2021/12/03 06:38:53;;;;;;;4.90;3.80;;;;;;;-0.60;76.66;99371.30;88646;1266;77977;-60
2021/12/03 06:41:02;;;;;;;5.70;3.80;;;;;;;-0.66;76.75;99377.84;88663;1266;82693;-60
2021/12/03 06:43:12;;;;;;;6.00;3.90;;;;;;;-0.74;76.83;99390.03;88663;1272;98449;-60
2021/12/03 06:45:22;;;;;;;4.30;3.80;;;;;;;-0.82;76.74;99401.58;88665;1273;88478;-59
2021/12/03 06:47:31;;;;;;;6.40;4.30;;;;;;;-0.89;76.87;99411.27;88665;1266;93734;-66
2021/12/03 06:49:41;;;;;;;6.60;4.60;;;;;;;-0.92;76.96;99412.77;88670;1266;79475;-67
2021/12/03 06:51:51;;;;;;;9.50;5.20;;;;;;;-0.91;77.00;99415.51;88653;1266;82308;-61
2021/12/03 06:54:03;;;;;;;7.80;5.10;;;;;;;-0.81;77.33;99421.16;88671;1267;97876;-60
2021/12/03 06:56:21;;;;;;;5.90;3.80;;;;;;;-0.71;77.20;99423.20;88613;1266;87779;-68
2021/12/03 06:58:30;;;;;;;6.60;4.10;;;;;;;-0.58;77.18;99428.00;88663;1266;94393;-66
2021/12/03 07:00:40;;;;;;;5.40;4.30;;;;;;;-0.40;77.26;99432.90;88652;1266;78834;-67
2021/12/03 07:02:50;;;;;;;6.10;4.20;;;;;;;-0.26;77.61;99433.83;88713;1266;79911;-60
2021/12/03 07:04:59;;;;;;;7.30;4.10;;;;;;;-0.14;77.41;99439.40;88669;1272;98078;-59
2021/12/03 07:07:09;;;;;;;6.10;5.00;;;;;;;-0.06;77.59;99445.70;88660;1266;88565;-67
2021/12/03 07:09:19;;;;;;;6.20;4.60;;;;;;;-0.02;77.42;99440.70;88673;1269;94288;-67
2021/12/03 07:11:29;;;;;;;6.20;5.00;;;;;;;0.03;77.41;99441.15;88673;1266;76703;-66
2021/12/03 07:13:39;;;;;;;5.30;4.60;;;;;;;0.09;77.33;99446.08;88665;1265;80209;-61
2021/12/03 07:15:49;;;;;;;8.90;6.10;;;;;;;0.11;77.40;99446.17;88610;1273;101155;-60
2021/12/03 07:17:59;;;;;;;6.50;4.70;;;;;;;0.14;77.13;99452.11;88677;1272;88356;-60
2021/12/03 07:20:10;;;;;;;7.50;5.30;;;;;;;0.19;77.26;99452.52;88537;1269;96940;-61
2021/12/03 07:22:19;;;;;;;7.40;5.10;;;;;;;0.22;77.10;99453.25;88655;1275;79064;-67
2021/12/03 07:24:28;;;;;;;7.60;5.60;;;;;;;0.26;77.17;99455.31;88652;1272;81212;-67
2021/12/03 07:26:37;;;;;;;7.10;5.70;;;;;;;0.33;77.20;99457.69;88652;1273;97226;-61
2021/12/03 07:28:47;;;;;;;7.50;5.90;;;;;;;0.40;77.32;99462.65;88681;1272;89056;-60
2021/12/03 07:30:59;;;;;;;7.80;5.30;;;;;;;0.47;77.21;99463.37;88707;1274;95247;-65
2021/12/03 07:33:12;;;;;;;7.50;5.10;;;;;;;0.58;77.07;99470.27;88621;1273;77600;-68
2021/12/03 07:35:21;;;;;;;6.40;4.90;;;;;;;0.66;76.92;99469.69;88688;1273;82937;-67
2021/12/03 07:37:30;;;;;;;6.20;4.50;;;;;;;0.62;76.80;99466.89;88676;1272;99937;-68
2021/12/03 07:39:40;;;;;;;8.70;4.90;;;;;;;0.64;76.83;99467.23;88666;1273;89043;-66
2021/12/03 07:41:49;;;;;;;6.60;4.50;;;;;;;0.68;76.76;99468.25;88643;1272;96077;-67
2021/12/03 07:43:58;;;;;;;6.30;5.30;;;;;;;0.70;76.71;99472.69;88648;1266;77924;-68
2021/12/03 07:46:07;;;;;;;6.40;5.30;;;;;;;0.76;76.47;99478.67;88646;1266;80121;-68
2021/12/03 07:48:21;;;;;;;6.40;5.00;;;;;;;0.84;76.25;99479.98;88672;1269;98984;-66
2021/12/03 07:50:35;;;;;;;6.60;5.40;;;;;;;0.87;75.99;99478.80;88554;1269;86898;-68
2021/12/03 07:52:44;;;;;;;7.10;5.70;;;;;;;1.10;75.88;99483.38;88652;1266;91936;-60
2021/12/03 07:54:53;;;;;;;5.70;5.10;;;;;;;1.44;75.34;99484.34;88633;1272;79860;-61
2021/12/03 07:57:02;;;;;;;7.00;4.70;;;;;;;2.29;75.18;99478.90;88663;1272;83568;-60
2021/12/03 07:59:11;;;;;;;8.40;4.80;;;;;;;3.28;73.87;99479.84;88658;1270;100222;-61
2021/12/03 08:01:21;;;;;;;6.80;4.20;;;;;;;3.72;72.80;99479.65;88621;1274;88919;-61
2021/12/03 08:03:32;;;;;;;6.10;4.00;;;;;;;3.30;72.47;99481.09;88623;1272;95729;-61
2021/12/03 08:05:42;;;;;;;6.30;4.20;;;;;;;2.80;72.58;99482.05;88665;1266;76604;-61
2021/12/03 08:07:52;;;;;;;5.80;3.90;;;;;;;2.53;72.83;99483.33;88676;1262;81140;-61
2021/12/03 08:10:03;;;;;;;5.80;3.90;;;;;;;2.42;72.54;99474.59;88671;1275;99645;-63
2021/12/03 08:12:14;;;;;;;4.80;4.00;;;;;;;2.33;72.69;99480.69;88660;1271;88031;-61
2021/12/03 08:14:23;;;;;;;6.70;4.10;;;;;;;2.30;72.41;99479.23;88658;1270;95127;-61
2021/12/03 08:16:32;;;;;;;6.30;3.70;;;;;;;2.24;72.19;99478.93;88681;1266;76504;-61
2021/12/03 08:18:41;;;;;;;9.10;4.40;;;;;;;2.34;72.04;99480.70;88558;1271;82310;-60
2021/12/03 08:20:50;;;;;;;6.10;4.40;;;;;;;2.34;72.08;99478.44;88666;1271;99967;-63
2021/12/03 08:22:58;;;;;;;8.20;4.10;;;;;;;2.57;72.06;99473.91;88635;1272;86988;-68
2021/12/03 08:25:10;;;;;;;5.20;3.40;;;;;;;3.39;71.85;99471.03;88620;1273;94310;-69
2021/12/03 08:27:19;;;;;;;6.30;3.50;;;;;;;4.20;71.38;99468.98;88662;1273;76648;-69
2021/12/03 08:29:28;;;;;;;5.00;3.60;;;;;;;4.94;70.88;99465.14;88676;1266;82663;-62
2021/12/03 08:31:39;;;;;;;8.80;4.20;;;;;;;5.32;69.69;99465.02;88572;1273;97992;-66
2021/12/03 08:33:51;;;;;;;5.20;3.50;;;;;;;5.24;68.67;99465.84;88668;1268;87460;-66
2021/12/03 08:36:00;;;;;;;6.40;3.40;;;;;;;5.14;68.27;99467.22;88661;1269;95110;-67
2021/12/03 08:38:10;;;;;;;6.10;3.80;;;;;;;4.87;68.21;99466.74;88633;1269;78066;-68
2021/12/03 08:40:20;;;;;;;5.40;3.00;;;;;;;4.78;68.19;99469.48;88688;1272;80992;-67
2021/12/03 08:42:30;;;;;;;5.50;3.50;;;;;;;4.65;67.12;99468.97;88671;1272;100207;-69
2021/12/03 08:44:39;;;;;;;6.40;3.40;;;;;;;4.36;67.68;99476.20;88649;1274;89303;-68
2021/12/03 08:46:52;;;;;;;7.40;4.40;;;;;;;4.13;67.88;99477.29;88525;1269;94722;-68
2021/12/03 08:49:08;;;;;;;6.30;3.70;;;;;;;3.94;67.48;99476.12;88654;1265;78010;-68
2021/12/03 08:51:33;;;;;;;6.90;3.70;;;;;;;4.14;67.99;99468.59;88654;1266;81800;-68
2021/12/03 08:56:09;;;;;;;6.20;3.90;;;;;;;4.90;67.10;99464.29;88696;1266;87032;-67
2021/12/03 08:58:19;;;;;;;6.10;4.00;;;;;;;5.20;67.14;99465.46;88647;1272;94587;-67
2021/12/03 09:00:29;;;;;;;7.00;3.70;;;;;;;5.59;67.20;99466.18;88659;1267;77128;-66
2021/12/03 09:02:38;;;;;;;5.10;3.80;;;;;;;5.96;65.09;99466.45;88645;1273;80852;-61
2021/12/03 09:04:49;;;;;;;5.70;3.50;;;;;;;6.10;64.11;99465.88;88639;1273;99069;-61
2021/12/03 09:06:59;;;;;;;7.10;3.80;;;;;;;6.17;64.94;99472.05;88689;1266;88786;-61
2021/12/03 09:09:08;;;;;;;10.20;3.70;;;;;;;6.27;63.20;99466.63;88638;1269;94116;-62
2021/12/03 09:11:18;;;;;;;7.30;3.60;;;;;;;6.16;63.21;99475.42;88641;1266;80771;-62
2021/12/03 09:13:28;;;;;;;6.90;3.80;;;;;;;6.09;63.71;99468.30;88664;1274;79523;-60
2021/12/03 09:15:40;;;;;;;6.20;3.50;;;;;;;6.43;62.86;99465.40;88600;1272;98636;-61
2021/12/03 09:18:01;;;;;;;6.30;3.70;;;;;;;6.90;63.55;99462.09;88657;1272;88995;-61
2021/12/03 09:20:32;;;;;;;6.90;3.40;;;;;;;7.30;63.38;99456.13;88662;1275;95443;-60
2021/12/03 09:22:43;;;;;;;7.10;3.50;;;;;;;7.62;61.34;99453.77;88555;1273;77812;-68
2021/12/03 09:24:53;;;;;;;6.30;3.70;;;;;;;7.85;61.75;99453.27;88646;1272;83278;-67
2021/12/03 09:27:05;;;;;;;7.50;3.70;;;;;;;8.06;60.05;99454.61;88656;1272;99590;-68
2021/12/03 09:29:25;;;;;;;5.10;3.10;;;;;;;8.27;60.66;99450.13;88667;1266;87311;-69
2021/12/03 09:31:37;;;;;;;6.20;3.30;;;;;;;8.48;58.52;99449.25;88618;1272;95421;-61
2021/12/03 09:33:47;;;;;;;4.70;3.00;;;;;;;8.56;58.58;99445.98;88652;1273;78612;-66
2021/12/03 09:36:02;;;;;;;5.10;3.30;;;;;;;8.55;59.67;99443.98;88662;1266;80409;-62
2021/12/03 09:38:12;;;;;;;5.80;3.50;;;;;;;8.76;58.95;99445.11;88663;1272;99406;-62
2021/12/03 09:40:21;;;;;;;6.90;3.10;;;;;;;8.74;59.24;99446.68;88672;1272;87604;-61
2021/12/03 09:42:30;;;;;;;6.10;3.60;;;;;;;8.75;58.59;99442.59;88673;1271;93478;-62
2021/12/03 09:44:43;;;;;;;7.20;3.50;;;;;;;8.72;57.52;99440.02;88657;1272;79353;-61
2021/12/03 09:46:54;;;;;;;5.60;3.50;;;;;;;8.68;55.90;99437.42;88669;1272;82394;-70
2021/12/03 09:49:32;;;;;;;6.90;3.50;;;;;;;8.37;57.33;99437.77;88631;1266;98259;-68
2021/12/03 09:51:53;;;;;;;5.90;3.30;;;;;;;8.28;56.58;99443.34;88651;1266;89333;-67
2021/12/03 09:56:33;;;;;;;9.20;4.10;;;;;;;8.18;56.54;99433.23;88650;1270;79642;-61
2021/12/03 09:59:35;;;;;;;6.40;3.90;;;;;;;8.10;57.39;99424.36;88664;1272;82844;-62
2021/12/03 10:01:36;;;;;;;6.40;3.60;;;;;;;8.38;57.54;99414.99;88646;1272;98197;-66
2021/12/03 10:04:01;;;;;;;8.00;3.80;;;;;;;8.81;57.12;99407.98;88640;1272;88644;-67
2021/12/03 10:14:30;;;;;;;7.00;3.60;;;;;;;6.58;57.17;99419.13;88685;1272;99416;-67
2021/12/03 10:17:02;;;;;;;6.80;3.20;;;;;;;6.10;57.93;99413.41;88665;1272;88044;-60
2021/12/03 10:19:26;;;;;;;8.20;3.70;;;;;;;5.74;57.93;99415.61;88557;1272;93120;-61
2021/12/03 10:27:26;;;;;;;6.70;3.80;;;;;;;4.67;59.55;99414.40;88639;1272;97662;-62
2021/12/03 10:43:16;;;;;;;6.50;3.70;;;;;;;3.99;62.19;99405.03;88613;1272;86616;-68
2021/12/03 10:45:35;;;;;;;8.40;3.60;;;;;;;3.93;62.58;99404.29;88597;1272;93485;-68
2021/12/03 10:48:03;;;;;;;7.30;3.60;;;;;;;3.95;62.79;99399.77;88586;1268;79814;-69
2021/12/03 10:50:25;;;;;;;6.60;3.40;;;;;;;3.93;62.87;99399.63;88619;1272;80747;-68
2021/12/03 10:52:54;;;;;;;7.80;3.60;;;;;;;3.90;63.08;99400.18;88591;1272;100248;-61
2021/12/03 11:06:34;;;;;;;6.60;3.50;;;;;;;3.63;64.17;99417.53;88348;1279;99996;-62
2021/12/03 11:12:07;;;;;;;5.40;3.50;;;;;;;3.72;64.48;99419.36;88270;1276;94623;-66